Ghazvin, Qazvin Airport (OIIK)

NameQazvin Airport
CityGhazvin
CountryIran (Islamic Republic of)
ICAOOIIK
IATAGZW
Altitude1275 m
CoordinatesGoogle Map
Live Air TrafficLiveATC.net
METAROIIK 191352Z 15014KT 9999 SCT030CB FEW035TCU 17/06 Q1008
2019-04-19 13:52:00 Wind: Southeast (150°) 7.2 m/s - Visibility: > 10000 m - Temperature: 17 °C - Dew point: 6 °C - Humidity: 48.5% - Pressure: 1008 hPa

Sorry, no flights used the airport in this database.